Time;durP1;ratioP1;P1;durP2;ratioP2;P2;SDS_P1;SDS_P2;PMS_P1;PMS_P2;Temp;Humidity;BMP_temperature;BMP_pressure;BME280_temperature;BME280_humidity;BME280_pressure;Samples;Min_cycle;Max_cycle;Signal;HPM_P1;HPM_P2
2022/10/03 00:02:01;;;;;;;;;;;;;;;19.25;53.12;102451.28;5006754;28;19921;-59
2022/10/03 00:04:27;;;;;;;;;;;;;;;19.25;52.84;102445.03;5023646;28;20015;-58
2022/10/03 00:06:52;;;;;;;;;;;;;;;19.23;53.01;102439.75;5024050;28;19913;-58
2022/10/03 00:09:36;;;;;;;;;;;;;;;19.22;52.82;102441.59;5023714;28;19968;-58
2022/10/03 00:12:23;;;;;;;;;;;;;;;19.22;53.00;102447.00;5024105;28;19913;-58
2022/10/03 00:15:03;;;;;;;;;;;;;;;19.22;52.78;102451.53;5022286;28;20163;-57
2022/10/03 00:17:31;;;;;;;;;;;;;;;19.21;53.07;102445.31;5006243;28;19964;-58
2022/10/03 00:20:15;;;;;;;;;;;;;;;19.21;52.88;102447.16;5023771;28;19976;-58
2022/10/03 00:22:42;;;;;;;;;;;;;;;19.20;52.70;102453.53;5023600;28;20017;-59
2022/10/03 00:25:24;;;;;;;;;;;;;;;19.19;52.87;102458.03;5006360;28;19909;-58
2022/10/03 00:27:55;;;;;;;;;;;;;;;19.18;52.74;102461.75;5023589;28;19948;-59
2022/10/03 00:30:21;;;;;;;;;;;;;;;19.18;52.77;102467.13;5024109;28;19913;-59
2022/10/03 00:33:02;;;;;;;;;;;;;;;19.17;52.96;102465.44;5023214;28;20290;-59
2022/10/03 00:35:33;;;;;;;;;;;;;;;19.17;52.95;102468.13;5006557;28;19992;-59
2022/10/03 00:38:06;;;;;;;;;;;;;;;19.16;52.97;102469.13;5024679;28;19917;-59
2022/10/03 00:40:31;;;;;;;;;;;;;;;19.16;52.78;102470.97;5010264;28;19913;-58
2022/10/03 00:43:09;;;;;;;;;;;;;;;19.15;52.73;102475.47;5027585;28;19940;-58
2022/10/03 00:45:34;;;;;;;;;;;;;;;19.15;52.79;102471.94;5027760;28;19913;-58
2022/10/03 00:48:23;;;;;;;;;;;;;;;19.14;52.85;102478.31;5027058;28;19976;-58
2022/10/03 00:50:57;;;;;;;;;;;;;;;19.13;52.88;102480.16;5010334;28;20385;-58
2022/10/03 00:53:34;;;;;;;;;;;;;;;19.13;52.72;102482.00;5009771;28;19909;-58
2022/10/03 00:56:20;;;;;;;;;;;;;;;19.12;52.81;102491.09;5027701;28;19910;-58
2022/10/03 00:58:51;;;;;;;;;;;;;;;19.11;52.94;102490.19;5026940;28;19909;-59
2022/10/03 01:01:43;;;;;;;;;;;;;;;19.12;52.95;102499.19;5009736;28;20337;-59
2022/10/03 01:04:27;;;;;;;;;;;;;;;19.11;52.69;102489.34;5023941;28;19996;-59
2022/10/03 01:06:55;;;;;;;;;;;;;;;19.11;52.82;102492.06;5026973;28;19997;-59
2022/10/03 01:09:22;;;;;;;;;;;;;;;19.09;52.69;102494.88;5027039;28;19913;-59
2022/10/03 01:12:06;;;;;;;;;;;;;;;19.09;52.66;102496.72;5009769;28;19916;-58
2022/10/03 01:14:39;;;;;;;;;;;;;;;19.09;52.71;102499.44;5009388;28;19996;-59
2022/10/03 01:17:09;;;;;;;;;;;;;;;19.08;52.94;102500.44;5027037;28;19909;-59
2022/10/03 01:19:42;;;;;;;;;;;;;;;19.08;52.68;102498.56;5026795;28;19915;-59
2022/10/03 01:22:15;;;;;;;;;;;;;;;19.07;52.75;102501.38;5009452;28;19933;-60
2022/10/03 01:24:58;;;;;;;;;;;;;;;19.06;52.89;102503.22;5009491;28;19913;-59
2022/10/03 01:27:29;;;;;;;;;;;;;;;19.06;52.66;102505.91;5008897;28;20426;-59
2022/10/03 01:32:49;;;;;;;;;;;;;;;19.05;52.60;102506.06;5011403;28;19921;-58
2022/10/03 01:35:14;;;;;;;;;;;;;;;19.03;52.66;102508.03;5009431;28;19959;-60
2022/10/03 01:37:52;;;;;;;;;;;;;;;19.03;52.89;102510.72;5026431;28;19921;-58
2022/10/03 01:40:36;;;;;;;;;;;;;;;19.02;52.79;102517.94;5026712;28;19909;-59
2022/10/03 01:43:20;;;;;;;;;;;;;;;19.01;52.91;102510.84;5026805;28;19933;-59
2022/10/03 01:45:46;;;;;;;;;;;;;;;19.01;52.61;102518.09;5026880;28;19975;-59
2022/10/03 01:48:21;;;;;;;;;;;;;;;19.00;52.85;102519.94;5025967;28;19917;-59
2022/10/03 01:50:47;;;;;;;;;;;;;;;19.00;52.56;102529.88;5008466;28;19914;-59
2022/10/03 01:53:14;;;;;;;;;;;;;;;18.98;52.76;102528.13;5026310;28;19915;-59
2022/10/03 01:55:44;;;;;;;;;;;;;;;18.98;52.58;102527.28;5026503;28;19909;-59
2022/10/03 01:58:25;;;;;;;;;;;;;;;18.97;52.65;102518.34;5008610;28;20274;-60
2022/10/03 02:01:06;;;;;;;;;;;;;;;18.96;52.69;102522.03;5026601;28;19921;-59
2022/10/03 02:03:42;;;;;;;;;;;;;;;18.96;52.63;102523.88;5008545;28;19913;-59
2022/10/03 02:06:26;;;;;;;;;;;;;;;18.95;52.71;102523.03;5008446;28;20020;-59
2022/10/03 02:08:55;;;;;;;;;;;;;;;18.94;52.78;102524.00;5026143;28;19963;-59
2022/10/03 02:11:40;;;;;;;;;;;;;;;18.94;52.46;102526.69;5026270;28;19913;-58
2022/10/03 02:14:14;;;;;;;;;;;;;;;18.93;52.48;102530.38;5008972;28;19917;-59
2022/10/03 02:16:42;;;;;;;;;;;;;;;18.93;52.58;102526.81;5008494;28;20412;-59
2022/10/03 02:19:25;;;;;;;;;;;;;;;18.93;52.65;102533.06;5025437;28;19909;-59
2022/10/03 02:21:51;;;;;;;;;;;;;;;18.92;52.72;102533.22;5025914;28;19920;-59
2022/10/03 02:24:23;;;;;;;;;;;;;;;18.91;52.59;102535.06;5025838;28;19909;-59
2022/10/03 02:27:07;;;;;;;;;;;;;;;18.90;52.49;102540.56;5025832;28;19913;-59
2022/10/03 02:29:32;;;;;;;;;;;;;;;18.90;52.75;102540.56;5025662;28;20549;-59
2022/10/03 02:31:57;;;;;;;;;;;;;;;18.89;52.55;102539.69;5025705;28;19909;-59
2022/10/03 02:34:24;;;;;;;;;;;;;;;18.89;52.56;102542.38;5025154;28;19915;-59
2022/10/03 02:37:08;;;;;;;;;;;;;;;18.88;52.58;102540.69;5007609;28;19917;-59
2022/10/03 02:39:33;;;;;;;;;;;;;;;18.87;52.59;102538.13;5025177;28;19921;-58
2022/10/03 02:42:17;;;;;;;;;;;;;;;18.87;52.42;102535.44;5025830;28;19910;-57
2022/10/03 02:45:00;;;;;;;;;;;;;;;18.85;52.65;102532.84;5025683;28;20026;-58
2022/10/03 02:47:28;;;;;;;;;;;;;;;18.86;52.62;102539.09;5007698;28;19924;-60
2022/10/03 02:50:02;;;;;;;;;;;;;;;18.85;52.61;102542.78;5025129;28;19949;-58
2022/10/03 02:52:43;;;;;;;;;;;;;;;18.84;52.34;102533.00;5007686;28;19926;-59
2022/10/03 02:55:09;;;;;;;;;;;;;;;18.84;52.53;102539.22;5007916;28;19937;-59
2022/10/03 02:57:41;;;;;;;;;;;;;;;18.83;52.72;102537.53;5025020;28;19917;-59
2022/10/03 03:00:19;;;;;;;;;;;;;;;18.82;52.55;102540.34;5007748;28;19913;-58
2022/10/03 03:02:47;;;;;;;;;;;;;;;18.82;52.47;102543.91;5024102;28;19909;-58
2022/10/03 03:05:21;;;;;;;;;;;;;;;18.81;52.56;102539.47;5024995;28;19909;-59
2022/10/03 03:07:58;;;;;;;;;;;;;;;18.80;52.40;102537.78;4987591;28;19918;-58
2022/10/03 03:10:32;;;;;;;;;;;;;;;18.80;52.35;102532.38;5005383;28;19910;-59
2022/10/03 03:12:57;;;;;;;;;;;;;;;18.79;52.37;102535.22;5008243;28;19927;-59
2022/10/03 03:15:35;;;;;;;;;;;;;;;18.79;52.51;102546.00;5025361;28;19952;-58
2022/10/03 03:18:01;;;;;;;;;;;;;;;18.78;52.49;102542.47;5007202;28;19945;-58
2022/10/03 03:20:40;;;;;;;;;;;;;;;18.77;52.49;102548.81;5025055;28;19921;-59
2022/10/03 03:23:08;;;;;;;;;;;;;;;18.77;52.39;102547.94;5007444;28;19910;-59
2022/10/03 03:25:42;;;;;;;;;;;;;;;18.77;52.47;102545.25;5025048;28;19909;-58
2022/10/03 03:28:18;;;;;;;;;;;;;;;18.76;52.50;102548.94;5024278;28;19921;-59
2022/10/03 03:31:02;;;;;;;;;;;;;;;18.75;52.27;102549.94;5024832;28;19914;-58
2022/10/03 03:33:37;;;;;;;;;;;;;;;18.74;52.29;102543.69;5024091;28;19909;-58
2022/10/03 03:36:13;;;;;;;;;;;;;;;18.73;52.42;102548.22;5007058;28;19909;-59
2022/10/03 03:39:03;;;;;;;;;;;;;;;18.73;52.40;102552.75;5006714;28;19932;-58
2022/10/03 03:41:49;;;;;;;;;;;;;;;18.72;52.30;102559.13;5007320;28;19928;-59
2022/10/03 03:44:20;;;;;;;;;;;;;;;18.72;52.29;102551.03;5006935;28;19925;-58
2022/10/03 03:46:51;;;;;;;;;;;;;;;18.71;52.27;102552.03;5024379;28;19977;-59
2022/10/03 03:49:22;;;;;;;;;;;;;;;18.69;52.23;102562.03;5023874;28;19909;-59
2022/10/03 03:52:03;;;;;;;;;;;;;;;18.69;52.21;102553.94;5024381;28;19995;-59
2022/10/03 03:54:47;;;;;;;;;;;;;;;18.67;52.30;102554.06;5024289;28;20271;-59
2022/10/03 03:57:31;;;;;;;;;;;;;;;18.67;52.15;102555.91;5024165;28;19971;-59
2022/10/03 04:00:16;;;;;;;;;;;;;;;18.67;52.21;102559.47;5024204;28;19948;-59
2022/10/03 04:02:45;;;;;;;;;;;;;;;18.67;52.37;102556.78;5006289;28;19913;-59
2022/10/03 04:05:17;;;;;;;;;;;;;;;18.66;52.16;102549.69;5002531;28;19913;-59
2022/10/03 04:07:48;;;;;;;;;;;;;;;18.66;52.01;102546.13;5004129;28;19981;-59
2022/10/03 04:10:20;;;;;;;;;;;;;;;18.65;52.26;102547.97;4987457;28;19909;-59
2022/10/03 04:12:55;;;;;;;;;;;;;;;18.64;52.48;102551.63;4996176;28;19965;-60
2022/10/03 04:15:33;;;;;;;;;;;;;;;18.65;52.16;102552.50;5011512;28;20018;-59
2022/10/03 04:21:16;;;;;;;;;;;;;;;18.63;52.10;102557.16;4966506;28;19933;-59
2022/10/03 04:23:44;;;;;;;;;;;;;;;18.63;52.20;102560.69;4954939;29;20422;-59
2022/10/03 04:26:24;;;;;;;;;;;;;;;18.62;52.09;102556.31;4968733;28;19910;-59
2022/10/03 04:29:02;;;;;;;;;;;;;;;18.62;52.45;102558.16;4968589;28;20016;-59
2022/10/03 04:31:48;;;;;;;;;;;;;;;18.61;52.40;102561.84;4968899;29;20497;-59
2022/10/03 04:34:31;;;;;;;;;;;;;;;18.61;52.40;102561.84;4947293;29;20790;-59
2022/10/03 04:37:02;;;;;;;;;;;;;;;18.60;52.48;102563.63;4950028;29;19961;-59
2022/10/03 04:39:36;;;;;;;;;;;;;;;18.60;52.24;102563.63;4949521;29;20330;-59
2022/10/03 04:42:05;;;;;;;;;;;;;;;18.60;52.47;102560.09;4963511;29;19929;-57
2022/10/03 04:44:46;;;;;;;;;;;;;;;18.59;52.58;102559.25;4968420;28;19918;-58
2022/10/03 04:47:16;;;;;;;;;;;;;;;18.60;52.34;102562.78;4968706;28;19918;-59
2022/10/03 04:49:59;;;;;;;;;;;;;;;18.59;52.54;102563.78;4967699;28;19958;-58
2022/10/03 04:52:32;;;;;;;;;;;;;;;18.59;52.60;102561.94;4967300;28;19921;-60
2022/10/03 04:54:59;;;;;;;;;;;;;;;18.60;52.53;102560.09;4958144;29;19918;-60
2022/10/03 04:57:45;;;;;;;;;;;;;;;18.58;52.58;102562.94;4980893;28;19916;-59
2022/10/03 05:00:32;;;;;;;;;;;;;;;18.59;52.40;102564.63;5010941;28;19917;-58
2022/10/03 05:03:00;;;;;;;;;;;;;;;18.58;52.50;102564.75;5009678;28;19909;-59
2022/10/03 05:05:33;;;;;;;;;;;;;;;18.58;52.56;102562.94;5028774;28;19980;-59
2022/10/03 05:08:05;;;;;;;;;;;;;;;18.58;52.59;102581.78;5014346;28;19985;-58
2022/10/03 05:10:39;;;;;;;;;;;;;;;18.58;52.54;102580.94;5027692;28;19932;-58
2022/10/03 05:13:11;;;;;;;;;;;;;;;18.58;52.59;102579.09;5026720;28;19920;-59
2022/10/03 05:15:52;;;;;;;;;;;;;;;18.58;52.56;102580.94;5011647;28;19913;-59
2022/10/03 05:18:40;;;;;;;;;;;;;;;18.58;52.69;102587.16;5026719;28;20000;-59
2022/10/03 05:21:08;;;;;;;;;;;;;;;18.32;52.59;102550.75;5017205;28;19916;-59
2022/10/03 05:23:40;;;;;;;;;;;;;;;18.57;52.53;102585.47;5029222;28;19973;-59
2022/10/03 05:26:15;;;;;;;;;;;;;;;18.56;52.58;102588.25;5007538;28;19916;-59
2022/10/03 05:28:44;;;;;;;;;;;;;;;18.56;52.60;102589.13;5001945;28;19917;-59
2022/10/03 05:31:24;;;;;;;;;;;;;;;18.55;52.39;102598.19;5006107;28;19937;-59
2022/10/03 05:34:08;;;;;;;;;;;;;;;18.55;52.75;102597.34;5023779;28;19984;-59
2022/10/03 05:36:42;;;;;;;;;;;;;;;18.55;52.58;102594.63;5025958;28;19925;-59
2022/10/03 05:39:34;;;;;;;;;;;;;;;18.55;52.67;102605.41;5025824;28;19909;-58
2022/10/03 05:41:59;;;;;;;;;;;;;;;18.54;52.74;102607.25;5019181;28;19913;-59
2022/10/03 05:44:42;;;;;;;;;;;;;;;18.54;52.86;102609.09;5026119;28;19995;-59
2022/10/03 05:50:09;;;;;;;;;;;;;;;18.53;52.61;102608.25;5008172;28;20469;-60
2022/10/03 05:52:43;;;;;;;;;;;;;;;18.53;52.69;102599.31;5025714;28;19909;-59
2022/10/03 05:55:21;;;;;;;;;;;;;;;18.52;52.73;102613.75;5025902;28;19913;-58
2022/10/03 05:57:46;;;;;;;;;;;;;;;18.51;52.88;102604.81;5008073;28;19972;-59
2022/10/03 06:00:13;;;;;;;;;;;;;;;18.51;52.80;102610.19;5025956;28;19909;-59
2022/10/03 06:02:57;;;;;;;;;;;;;;;18.52;52.78;102611.94;5023385;28;19915;-59
2022/10/03 06:05:26;;;;;;;;;;;;;;;18.51;52.93;102604.81;5015301;28;19909;-58
2022/10/03 06:08:05;;;;;;;;;;;;;;;18.49;52.88;102602.25;5017289;28;19924;-58
2022/10/03 06:10:43;;;;;;;;;;;;;;;18.51;52.99;102606.66;4992324;28;19976;-59
2022/10/03 06:13:10;;;;;;;;;;;;;;;18.50;52.86;102603.09;5025798;28;19916;-58
2022/10/03 06:15:45;;;;;;;;;;;;;;;18.51;52.93;102612.03;5026101;28;19910;-58
2022/10/03 06:18:22;;;;;;;;;;;;;;;18.49;52.71;102609.47;5025024;28;19910;-59
2022/10/03 06:20:59;;;;;;;;;;;;;;;18.49;52.68;102618.41;5007842;28;20290;-54
2022/10/03 06:23:33;;;;;;;;;;;;;;;18.49;52.60;102618.41;4989955;28;19917;-55
2022/10/03 06:26:11;;;;;;;;;;;;;;;18.50;52.82;102619.25;5019966;28;19918;-53
2022/10/03 06:28:50;;;;;;;;;;;;;;;18.51;52.79;102628.19;5009477;28;19967;-50
2022/10/03 06:31:24;;;;;;;;;;;;;;;18.52;52.96;102625.41;5020000;28;19913;-53
2022/10/03 06:33:56;;;;;;;;;;;;;;;18.54;52.72;102636.03;5029863;28;19914;-55
2022/10/03 06:36:40;;;;;;;;;;;;;;;18.54;52.65;102628.81;5025211;28;20020;-53
2022/10/03 06:39:14;;;;;;;;;;;;;;;18.56;52.95;102634.06;5020695;28;19948;-50
2022/10/03 06:41:41;;;;;;;;;;;;;;;18.22;52.98;102570.34;5019730;28;19949;-54
2022/10/03 06:44:12;;;;;;;;;;;;;;;18.59;52.70;102634.66;5016510;28;19919;-53
2022/10/03 06:46:44;;;;;;;;;;;;;;;18.62;52.58;102629.03;5021175;28;19914;-52
2022/10/03 06:49:30;;;;;;;;;;;;;;;18.64;52.86;102632.44;4995913;28;19949;-53
2022/10/03 06:51:55;;;;;;;;;;;;;;;18.65;52.41;102634.19;4995686;28;19910;-52
2022/10/03 06:54:32;;;;;;;;;;;;;;;18.67;52.75;102640.28;5014025;28;19921;-52
2022/10/03 06:57:03;;;;;;;;;;;;;;;18.69;52.56;102629.38;5025023;28;19913;-54
2022/10/03 06:59:38;;;;;;;;;;;;;;;18.71;52.57;102635.56;5020109;28;19914;-57
2022/10/03 07:02:12;;;;;;;;;;;;;;;18.73;52.32;102636.25;5003747;28;20571;-54
2022/10/03 07:04:46;;;;;;;;;;;;;;;18.75;52.43;102637.00;5018836;28;19913;-53
2022/10/03 07:07:17;;;;;;;;;;;;;;;18.77;52.65;102634.19;5018775;28;19917;-52
2022/10/03 07:09:52;;;;;;;;;;;;;;;18.78;52.52;102630.53;5020528;28;19917;-51
2022/10/03 07:12:30;;;;;;;;;;;;;;;18.80;52.42;102636.63;5017136;28;19913;-53
2022/10/03 07:15:13;;;;;;;;;;;;;;;18.80;52.18;102637.50;5019485;28;19920;-57
2022/10/03 07:17:41;;;;;;;;;;;;;;;18.83;52.32;102644.47;5022054;28;19967;-58
2022/10/03 07:20:17;;;;;;;;;;;;;;;18.84;52.13;102646.19;5021453;28;19913;-49
2022/10/03 07:22:48;;;;;;;;;;;;;;;18.86;52.07;102646.91;5008935;28;19931;-53
2022/10/03 07:25:31;;;;;;;;;;;;;;;18.86;51.88;102649.59;5016875;28;19910;-52
2022/10/03 07:28:08;;;;;;;;;;;;;;;18.88;52.13;102653.88;5020518;28;19921;-54
2022/10/03 07:30:52;;;;;;;;;;;;;;;18.89;52.15;102643.97;5020585;28;19913;-56
2022/10/03 07:33:30;;;;;;;;;;;;;;;18.91;52.13;102659.03;5018797;28;19913;-55
2022/10/03 07:39:08;;;;;;;;;;;;;;;18.94;51.88;102655.22;5021754;28;19924;-55
2022/10/03 07:41:37;;;;;;;;;;;;;;;18.95;51.59;102670.41;5010546;28;20438;-57
2022/10/03 07:44:05;;;;;;;;;;;;;;;18.96;51.78;102669.44;5024819;28;19916;-54
2022/10/03 07:46:35;;;;;;;;;;;;;;;18.97;52.00;102676.53;5020622;28;19913;-56
2022/10/03 07:49:04;;;;;;;;;;;;;;;18.99;51.77;102679.97;5019224;28;19924;-55
2022/10/03 07:51:32;;;;;;;;;;;;;;;19.00;51.77;102687.06;4987853;28;19909;-57
2022/10/03 07:54:16;;;;;;;;;;;;;;;19.02;51.71;102682.38;5019207;28;20099;-55
2022/10/03 07:57:11;;;;;;;;;;;;;;;19.05;51.75;102684.00;5018531;28;19924;-54
2022/10/03 07:59:51;;;;;;;;;;;;;;;19.07;51.86;102685.56;4956253;28;19950;-56
2022/10/03 08:02:22;;;;;;;;;;;;;;;19.09;51.43;102689.00;4960759;28;19934;-55
2022/10/03 08:05:02;;;;;;;;;;;;;;;19.12;51.70;102694.16;4964443;28;19910;-57
2022/10/03 08:07:31;;;;;;;;;;;;;;;19.15;51.61;102695.72;4948953;28;19918;-54
2022/10/03 08:10:22;;;;;;;;;;;;;;;19.17;51.21;102691.91;4952773;29;19914;-54
2022/10/03 08:12:47;;;;;;;;;;;;;;;19.19;51.26;102686.38;4941919;28;19949;-56
2022/10/03 08:15:29;;;;;;;;;;;;;;;19.23;51.41;102691.41;4952107;28;20208;-58
2022/10/03 08:17:54;;;;;;;;;;;;;;;19.29;51.37;102694.59;4952300;29;19945;-53
2022/10/03 08:20:31;;;;;;;;;;;;;;;19.34;51.28;102701.31;4958466;28;19914;-59
2022/10/03 08:23:15;;;;;;;;;;;;;;;19.40;50.78;102697.22;4950150;28;19987;-59
2022/10/03 08:25:59;;;;;;;;;;;;;;;19.44;50.85;102701.38;4961610;28;19957;-58
2022/10/03 08:28:29;;;;;;;;;;;;;;;19.47;50.94;102699.28;4951607;28;19921;-54
2022/10/03 08:31:01;;;;;;;;;;;;;;;19.51;50.99;102699.91;4941488;29;19949;-56
2022/10/03 08:33:41;;;;;;;;;;;;;;;19.55;50.75;102701.34;4954188;28;19915;-57
2022/10/03 08:36:20;;;;;;;;;;;;;;;19.61;51.00;102695.44;4997498;28;19913;-54
2022/10/03 08:39:01;;;;;;;;;;;;;;;19.68;50.61;102699.34;5006559;28;20012;-55
2022/10/03 08:41:45;;;;;;;;;;;;;;;19.73;50.69;102697.13;5021179;28;19962;-56
2022/10/03 08:44:10;;;;;;;;;;;;;;;19.79;50.82;102701.13;5017656;28;19916;-56
2022/10/03 08:46:47;;;;;;;;;;;;;;;19.85;50.33;102699.75;5019408;28;19949;-54
2022/10/03 08:49:21;;;;;;;;;;;;;;;19.89;50.34;102707.47;5015653;28;19909;-57
2022/10/03 08:51:52;;;;;;;;;;;;;;;19.91;50.41;102702.78;5018566;28;20421;-54
2022/10/03 08:54:36;;;;;;;;;;;;;;;19.94;50.17;102699.81;5000045;28;19909;-55
2022/10/03 08:57:08;;;;;;;;;;;;;;;19.96;50.23;102695.16;5017714;28;20301;-54
2022/10/03 08:59:43;;;;;;;;;;;;;;;20.00;50.10;102694.88;5003613;28;19910;-53
2022/10/03 09:02:25;;;;;;;;;;;;;;;20.02;50.19;102693.75;5024541;28;19916;-54
2022/10/03 09:05:09;;;;;;;;;;;;;;;20.04;50.20;102691.78;5004703;28;19913;-55
2022/10/03 09:07:37;;;;;;;;;;;;;;;20.07;50.24;102687.97;5024070;28;19956;-51
2022/10/03 09:10:23;;;;;;;;;;;;;;;20.10;50.01;102699.38;5022165;28;19924;-55
2022/10/03 09:12:57;;;;;;;;;;;;;;;20.14;50.25;102697.25;5003862;28;20341;-57
2022/10/03 09:15:25;;;;;;;;;;;;;;;20.18;49.97;102690.59;5024845;28;19973;-58
2022/10/03 09:17:50;;;;;;;;;;;;;;;20.19;50.11;102697.69;5022253;28;21624;-55
2022/10/03 09:20:34;;;;;;;;;;;;;;;20.21;49.91;102701.97;5020676;28;19909;-59
2022/10/03 09:23:02;;;;;;;;;;;;;;;20.24;49.99;102698.16;5018845;28;19952;-54
2022/10/03 09:25:28;;;;;;;;;;;;;;;20.26;49.69;102698.00;5022660;28;19909;-54
2022/10/03 09:28:05;;;;;;;;;;;;;;;20.27;50.07;102697.88;5022566;28;19918;-55
2022/10/03 09:30:54;;;;;;;;;;;;;;;20.29;49.73;102706.69;5005574;28;19910;-55
2022/10/03 09:33:38;;;;;;;;;;;;;;;20.31;49.84;102704.75;4924969;29;19915;-54
2022/10/03 09:36:21;;;;;;;;;;;;;;;20.33;49.74;102700.03;4929056;29;19983;-56
2022/10/03 09:38:52;;;;;;;;;;;;;;;20.35;49.88;102692.66;4928860;29;20017;-56
2022/10/03 09:41:41;;;;;;;;;;;;;;;20.37;49.76;102697.94;4925087;29;19994;-53
2022/10/03 09:44:21;;;;;;;;;;;;;;;20.36;49.82;102691.69;4913788;29;19915;-54
2022/10/03 09:47:21;;;;;;;;;;;;;;;20.36;49.91;102686.28;4925171;29;19915;-55
2022/10/03 09:49:35;;;;;;;;;;;;;;;20.37;49.98;102676.31;4915299;29;19962;-55
2022/10/03 09:52:23;;;;;;;;;;;;;;;20.37;49.78;102690.69;4925321;29;19911;-57
2022/10/03 09:54:54;;;;;;;;;;;;;;;20.38;49.86;102683.44;4936372;29;19939;-52
2022/10/03 09:57:24;;;;;;;;;;;;;;;20.39;49.66;102674.31;4928983;29;19915;-56
2022/10/03 09:59:51;;;;;;;;;;;;;;;20.39;49.99;102672.50;4925795;29;20368;-53
2022/10/03 10:02:35;;;;;;;;;;;;;;;20.40;50.00;102673.34;4917357;29;19942;-55
2022/10/03 10:05:00;;;;;;;;;;;;;;;20.39;49.98;102669.81;4930468;29;19926;-57
2022/10/03 10:07:51;;;;;;;;;;;;;;;20.40;50.08;102681.47;4921752;29;19923;-55
2022/10/03 10:10:22;;;;;;;;;;;;;;;20.39;50.20;102672.50;4963419;28;20034;-55
2022/10/03 10:13:02;;;;;;;;;;;;;;;20.40;50.04;102659.84;5022591;28;19913;-58
2022/10/03 10:15:46;;;;;;;;;;;;;;;20.39;50.17;102650.88;5027406;28;20420;-57
2022/10/03 10:18:30;;;;;;;;;;;;;;;20.40;49.80;102659.84;5022388;28;19917;-55
2022/10/03 10:21:14;;;;;;;;;;;;;;;20.39;49.68;102659.00;5021143;28;19909;-50
2022/10/03 10:23:45;;;;;;;;;;;;;;;20.40;49.81;102663.41;5021622;28;19917;-56
2022/10/03 10:26:29;;;;;;;;;;;;;;;20.42;49.96;102661.41;5024876;28;19916;-53
2022/10/03 10:28:54;;;;;;;;;;;;;;;20.45;49.84;102660.28;5022232;28;19917;-54
2022/10/03 10:31:38;;;;;;;;;;;;;;;20.46;49.61;102657.44;5022870;28;19913;-55
2022/10/03 10:34:06;;;;;;;;;;;;;;;20.47;49.80;102655.59;5020919;28;20437;-57
2022/10/03 10:36:50;;;;;;;;;;;;;;;20.50;49.63;102658.06;5021754;28;19921;-55
2022/10/03 10:39:34;;;;;;;;;;;;;;;20.50;49.85;102666.16;5022395;28;19909;-54
2022/10/03 10:42:11;;;;;;;;;;;;;;;20.52;49.70;102664.19;5020876;28;19924;-55
2022/10/03 10:44:52;;;;;;;;;;;;;;;20.54;49.90;102656.78;5004169;28;19920;-54
2022/10/03 10:47:26;;;;;;;;;;;;;;;20.56;49.81;102662.06;5019442;28;19947;-56
2022/10/03 10:49:58;;;;;;;;;;;;;;;20.58;49.93;102650.13;5016334;28;19918;-56
2022/10/03 10:52:31;;;;;;;;;;;;;;;20.61;49.99;102654.41;5029777;28;19918;-56
2022/10/03 10:54:56;;;;;;;;;;;;;;;20.63;49.99;102664.06;5004161;28;19913;-57
2022/10/03 10:57:47;;;;;;;;;;;;;;;20.64;49.84;102654.97;5018789;28;20374;-57
2022/10/03 11:00:31;;;;;;;;;;;;;;;20.64;49.72;102659.53;5005443;28;19909;-56
2022/10/03 11:03:02;;;;;;;;;;;;;;;20.65;50.07;102654.00;5021950;28;19967;-56
2022/10/03 11:05:35;;;;;;;;;;;;;;;20.68;49.79;102663.66;5021519;28;19933;-56
2022/10/03 11:08:17;;;;;;;;;;;;;;;20.69;49.92;102662.69;4998347;28;19917;-56
2022/10/03 11:11:01;;;;;;;;;;;;;;;20.71;49.91;102664.25;5004177;28;20305;-52
2022/10/03 11:13:45;;;;;;;;;;;;;;;20.72;49.92;102665.09;5019280;28;19909;-56
2022/10/03 11:16:13;;;;;;;;;;;;;;;20.71;49.97;102657.97;5019412;28;19913;-54
2022/10/03 11:18:50;;;;;;;;;;;;;;;20.71;49.85;102658.84;5020860;28;20554;-56
2022/10/03 11:21:41;;;;;;;;;;;;;;;20.70;49.81;102661.69;5019768;28;19909;-54
2022/10/03 11:24:19;;;;;;;;;;;;;;;20.67;50.15;102654.69;4980266;28;20389;-54
2022/10/03 11:27:05;;;;;;;;;;;;;;;20.64;49.88;102660.38;5016129;28;19992;-55
2022/10/03 11:29:54;;;;;;;;;;;;;;;20.63;50.36;102655.13;5016464;28;19951;-56
2022/10/03 11:32:23;;;;;;;;;;;;;;;20.62;50.41;102659.66;5006581;28;19921;-52
2022/10/03 11:34:56;;;;;;;;;;;;;;;20.61;50.23;102657.13;5024308;28;19920;-52
2022/10/03 11:37:31;;;;;;;;;;;;;;;20.62;50.33;102658.81;5023394;28;19922;-51
2022/10/03 11:40:02;;;;;;;;;;;;;;;20.63;50.18;102657.81;5024052;28;19941;-51
2022/10/03 11:42:28;;;;;;;;;;;;;;;20.64;50.11;102659.53;5024702;28;19910;-51
2022/10/03 11:44:59;;;;;;;;;;;;;;;20.65;50.09;102654.00;5024252;28;20073;-55
2022/10/03 11:47:38;;;;;;;;;;;;;;;20.66;49.96;102652.16;5006830;28;20326;-54
2022/10/03 11:50:22;;;;;;;;;;;;;;;20.66;50.01;102649.44;5023875;28;19909;-52
2022/10/03 11:52:51;;;;;;;;;;;;;;;20.65;49.91;102642.34;5023804;28;20086;-52
2022/10/03 11:55:19;;;;;;;;;;;;;;;20.64;50.09;102646.84;5006633;28;19909;-55
2022/10/03 11:57:47;;;;;;;;;;;;;;;20.64;49.95;102654.97;5023956;28;19913;-50
2022/10/03 12:00:14;;;;;;;;;;;;;;;20.64;50.16;102654.13;5024043;28;19909;-52
2022/10/03 12:02:40;;;;;;;;;;;;;;;20.64;49.98;102656.81;5006596;28;19909;-52
2022/10/03 12:05:11;;;;;;;;;;;;;;;20.63;50.01;102647.84;5023771;28;19917;-53
2022/10/03 12:10:39;;;;;;;;;;;;;;;20.64;50.28;102646.00;5024160;28;19917;-52
2022/10/03 12:13:11;;;;;;;;;;;;;;;20.63;50.22;102641.59;5024179;28;19916;-51
2022/10/03 12:15:39;;;;;;;;;;;;;;;20.64;50.22;102649.56;5007244;28;19909;-52
2022/10/03 12:18:14;;;;;;;;;;;;;;;20.63;50.12;102649.72;5006282;28;19916;-54
2022/10/03 12:20:39;;;;;;;;;;;;;;;20.62;50.16;102651.56;5023467;28;19931;-50
2022/10/03 12:23:16;;;;;;;;;;;;;;;20.61;50.06;102640.91;5023718;28;20476;-51
2022/10/03 12:25:41;;;;;;;;;;;;;;;20.60;50.31;102642.75;5023925;28;19944;-52
2022/10/03 12:28:19;;;;;;;;;;;;;;;20.60;50.12;102633.75;4995103;28;19922;-53
2022/10/03 12:30:44;;;;;;;;;;;;;;;20.59;49.93;102629.34;5022667;28;19909;-56
2022/10/03 12:33:15;;;;;;;;;;;;;;;20.59;50.36;102637.47;5017177;28;19917;-56
2022/10/03 12:35:43;;;;;;;;;;;;;;;20.58;50.30;102635.75;5025163;28;19921;-56
2022/10/03 12:38:27;;;;;;;;;;;;;;;20.57;50.19;102631.34;5026119;28;19930;-55
2022/10/03 12:41:00;;;;;;;;;;;;;;;20.53;50.21;102625.38;5015797;28;19960;-54
2022/10/03 12:43:44;;;;;;;;;;;;;;;20.51;50.64;102632.75;5015035;28;19909;-58
2022/10/03 12:46:23;;;;;;;;;;;;;;;20.48;50.42;102633.03;5026179;28;19917;-55
2022/10/03 12:48:54;;;;;;;;;;;;;;;20.45;50.52;102626.00;5010138;28;19917;-55
2022/10/03 12:51:25;;;;;;;;;;;;;;;20.44;50.80;102632.41;5010152;28;19935;-57
2022/10/03 12:53:54;;;;;;;;;;;;;;;20.43;50.92;102633.41;5013331;28;19916;-56
2022/10/03 12:56:29;;;;;;;;;;;;;;;20.42;50.80;102626.28;5008435;28;19917;-57
2022/10/03 12:59:14;;;;;;;;;;;;;;;20.42;51.05;102620.88;5027240;28;19915;-59
2022/10/03 13:01:50;;;;;;;;;;;;;;;20.44;50.80;102621.59;5011298;28;19909;-55
2022/10/03 13:04:31;;;;;;;;;;;;;;;20.45;50.89;102617.91;5023017;28;19986;-53
2022/10/03 13:07:08;;;;;;;;;;;;;;;20.46;51.16;102622.31;5027283;28;19945;-52
2022/10/03 13:09:55;;;;;;;;;;;;;;;20.47;51.11;102620.47;5007614;28;19959;-57
2022/10/03 13:12:26;;;;;;;;;;;;;;;20.47;51.03;102615.06;5025750;28;20011;-55
2022/10/03 13:15:21;;;;;;;;;;;;;;;20.47;51.36;102621.34;5027282;28;20015;-56
2022/10/03 13:18:12;;;;;;;;;;;;;;;20.45;51.47;102620.59;5025724;28;19909;-56
2022/10/03 13:20:39;;;;;;;;;;;;;;;20.43;51.61;102619.91;5019920;28;19935;-55
2022/10/03 13:23:08;;;;;;;;;;;;;;;20.41;51.47;102623.72;5025740;28;19913;-58
2022/10/03 13:25:52;;;;;;;;;;;;;;;20.39;51.64;102618.47;5024376;28;19909;-57
2022/10/03 13:28:29;;;;;;;;;;;;;;;20.36;52.06;102621.44;5027230;28;19939;-56
2022/10/03 13:30:56;;;;;;;;;;;;;;;20.34;51.88;102622.56;5025179;28;19955;-56
2022/10/03 13:33:28;;;;;;;;;;;;;;;20.33;52.13;102618.16;5027315;28;19909;-54